Latest Weather Observations for Neptune Island

IDS60801

Issued at 1:35 pm CST Wednesday 3 September 2014 (issued every 30 minutes, with the page automatically refreshed every 10 minutes)

About weather observations | Map of weather stations | Latest weather observations for SA | Other Formats
Station Details ID: 018115 Name: NEPTUNE ISLAND Lat: -35.34 Lon: 136.12 Height: 32.0 m
Data from the previous 72 hours. | See also: Recent months at Neptune Island
Date/Time
CST
Temp
°C
App
Temp
°C
Dew
Point
Rel
Hum
%
Delta-T
°C
Wind Press
QNH
hPa
Press
MSL
hPa
Rain
since 9 am
mm
Dir
 
Spd
km/h
Gust
km/h
Spd
kts
Gust
kts
03/01:30pm 13.6 6.9 8.2 70 2.7 N 33 37 18 20 1019.3 1019.3 0.0
03/01:00pm 13.5 7.0 8.8 73 2.4 N 33 39 18 21 1020.0 1020.0 0.0
03/12:30pm 13.3 6.7 8.4 72 2.4 N 33 37 18 20 1020.4 1020.4 0.0
03/12:00pm 14.0 7.2 9.2 73 2.4 N 35 41 19 22 1020.7 1020.7 0.0
03/11:30am 13.8 6.6 9.0 73 2.4 N 37 44 20 24 1021.0 1021.0 0.0
03/11:00am 13.6 5.5 8.7 72 2.5 NNE 41 46 22 25 1021.2 1021.2 0.0
03/10:30am 13.1 5.4 8.6 74 2.2 NNE 39 46 21 25 1021.5 1021.5 0.0
03/10:00am 12.6 4.8 8.1 74 2.2 NNE 39 46 21 25 1022.1 1022.1 0.0
03/09:30am 12.6 5.1 8.1 74 2.2 NNE 37 43 20 23 1022.6 1022.6 0.0
03/09:00am 12.6 4.3 7.9 73 2.3 NNE 41 48 22 26 1022.6 1022.6 0.2
03/08:30am 12.5 4.6 8.0 74 2.2 NNE 39 46 21 25 1022.3 1022.3 0.2
03/08:00am 12.3 5.8 8.0 75 2.1 NNE 32 44 17 24 1022.8 1022.8 0.2
03/07:30am 12.2 6.3 7.7 74 2.2 NNE 28 37 15 20 1022.9 1022.9 0.2
03/07:00am 11.9 6.6 7.0 72 2.3 NNE 24 35 13 19 1023.0 1023.0 0.2
03/06:30am 11.9 6.6 7.0 72 2.3 NNE 24 35 13 19 1023.5 1023.5 0.2
03/06:00am 11.8 5.8 6.9 72 2.3 NE 28 39 15 21 1023.0 1023.0 0.2
03/05:30am 11.7 7.0 6.2 69 2.6 NNE 20 30 11 16 1023.5 1023.5 0.2
03/05:00am 12.0 5.9 6.5 69 2.6 NE 28 41 15 22 1023.1 1023.1 0.2
03/04:30am 11.9 7.2 6.2 68 2.7 NNE 20 28 11 15 1023.5 1023.5 0.2
03/04:00am 12.0 7.4 6.7 70 2.5 NNE 20 32 11 17 1023.6 1023.6 0.2
03/03:30am 11.8 7.2 6.3 69 2.6 NNE 20 30 11 16 1023.3 1023.3 0.2
03/03:00am 11.9 6.8 6.2 68 2.7 ENE 22 30 12 16 1023.9 1023.9 0.2
03/02:30am 11.8 6.8 6.3 69 2.6 ENE 22 28 12 15 1024.0 1024.0 0.2
03/02:00am 11.6 6.9 6.1 69 2.6 ENE 20 24 11 13 1024.5 1024.5 0.2
03/01:30am 11.6 6.9 6.1 69 2.6 E 20 26 11 14 1025.1 1025.1 0.2
03/01:00am 11.4 6.8 5.7 68 2.6 E 19 24 10 13 1025.4 1025.4 0.2
03/12:30am 11.2 7.3 5.5 68 2.6 E 15 19 8 10 1026.0 1026.0 0.2
03/12:00am 11.1 7.2 5.2 67 2.7 E 15 19 8 10 1025.8 1025.8 0.2
 
Date/Time
CST
Temp
°C
App
Temp
°C
Dew
Point
Rel
Hum
%
Delta-T
°C
Wind Press
QNH
hPa
Press
MSL
hPa
Rain
since 9 am
mm
Dir
 
Spd
km/h
Gust
km/h
Spd
kts
Gust
kts
02/11:30pm 10.8 7.5 4.7 66 2.7 E 11 15 6 8 1026.0 1026.0 0.2
02/11:00pm 11.3 8.0 4.7 64 3.0 ESE 11 15 6 8 1026.4 1026.4 0.2
02/10:30pm 11.8 8.6 5.2 64 3.0 SSE 11 15 6 8 1026.8 1026.8 0.2
02/10:00pm 11.9 8.7 5.1 63 3.1 S 11 15 6 8 1027.1 1027.1 0.2
02/09:30pm 11.9 8.7 4.9 62 3.2 S 11 13 6 7 1027.2 1027.2 0.2
02/09:00pm 12.0 8.4 5.2 63 3.1 S 13 17 7 9 1027.5 1027.5 0.2
02/08:30pm 11.9 8.4 5.5 65 2.9 S 13 20 7 11 1027.4 1027.4 0.2
02/08:00pm 11.7 7.4 5.3 65 3.0 S 17 22 9 12 1027.3 1027.3 0.2
02/07:30pm 11.8 7.6 5.7 66 2.8 SSE 17 22 9 12 1027.2 1027.2 0.2
02/07:00pm 11.9 7.1 5.8 66 2.8 SSE 20 24 11 13 1027.2 1027.2 0.2
02/06:30pm 12.0 7.2 5.6 65 3.0 S 20 24 11 13 1026.8 1026.8 0.2
02/06:00pm 12.1 7.4 5.3 63 3.1 SSE 19 24 10 13 1026.3 1026.3 0.2
02/05:30pm 12.4 7.2 5.3 62 3.3 SSE 22 26 12 14 1026.1 1026.1 0.2
02/05:00pm 13.0 7.9 6.1 63 3.3 S 22 28 12 15 1026.3 1026.3 0.2
02/04:30pm 13.4 7.9 5.8 60 3.6 S 24 30 13 16 1026.0 1026.0 0.2
02/04:00pm 13.7 8.0 6.6 62 3.4 S 26 32 14 17 1026.0 1026.0 0.2
02/03:30pm 13.4 7.8 5.6 59 3.6 S 24 32 13 17 1026.1 1026.1 0.2
02/03:00pm 13.5 7.6 5.7 59 3.7 S 26 32 14 17 1026.1 1026.1 0.2
02/02:30pm 13.6 7.8 6.2 61 3.5 S 26 32 14 17 1026.0 1026.0 0.2
02/02:00pm 13.5 7.7 6.4 62 3.4 S 26 33 14 18 1026.0 1026.0 0.2
02/01:30pm 12.8 6.3 6.6 66 2.9 S 30 35 16 19 1026.3 1026.3 0.2
02/01:00pm 13.2 7.6 7.0 66 3.0 S 26 32 14 17 1026.6 1026.6 0.2
02/12:30pm 13.3 7.2 8.2 71 2.5 S 30 35 16 19 1026.9 1026.9 0.2
02/12:00pm 12.5 5.3 7.8 73 2.3 S 35 41 19 22 1026.9 1026.9 0.2
02/11:30am 11.7 5.4 7.2 74 2.1 S 30 50 16 27 1026.9 1026.9 0.0
02/11:29am 12.2 5.9 7.5 73 2.3 S 30 50 16 27 1026.8 1026.8 0.0
02/11:00am 12.3 5.1 7.6 73 2.3 S 35 44 19 24 1026.8 1026.8 0.0
02/10:30am 13.0 4.3 7.7 70 2.6 S 43 52 23 28 1026.4 1026.4 0.0
02/10:00am 12.6 4.2 7.3 70 2.6 S 41 46 22 25 1026.6 1026.6 0.0
02/09:30am 12.3 4.7 7.4 72 2.4 S 37 46 20 25 1026.5 1026.5 0.0
02/09:12am 12.1 4.8 7.4 73 2.3 S 35 54 19 29 1026.3 1026.3 0.0
02/09:00am 12.0 4.0 7.5 74 2.2 S 39 50 21 27 1026.5 1026.5 0.2
02/08:30am 12.4 4.6 6.5 67 2.8 S 37 44 20 24 1026.3 1026.3 0.2
02/08:00am 12.1 3.2 7.6 74 2.2 S 44 54 24 29 1025.6 1025.6 0.2
02/07:38am 12.0 4.0 7.5 74 2.2 SSE 39 44 21 24 1025.2 1025.2 0.2
02/07:30am 11.9 3.9 7.4 74 2.2 S 39 46 21 25 1025.2 1025.2 0.2
02/07:00am 12.0 3.2 7.3 73 2.3 S 43 50 23 27 1024.9 1024.9 0.2
02/06:30am 11.6 2.1 6.9 73 2.2 S 46 56 25 30 1024.7 1024.7 0.2
02/06:00am 12.2 2.0 6.9 70 2.5 S 50 56 27 30 1024.4 1024.4 0.2
02/05:30am 11.9 1.7 6.8 71 2.4 SSW 50 59 27 32 1023.9 1023.9 0.2
02/05:00am 11.7 2.3 7.0 73 2.2 SSW 46 56 25 30 1023.5 1023.5 0.2
02/04:30am 11.5 1.7 7.2 75 2.1 SW 48 65 26 35 1023.1 1023.1 0.2
02/04:00am 12.0 1.9 7.5 74 2.2 SSW 50 59 27 32 1022.9 1022.9 0.2
02/03:30am 11.7 1.9 7.2 74 2.2 SSW 48 61 26 33 1022.5 1022.5 0.2
02/03:00am 12.0 2.6 7.1 72 2.3 SSW 46 57 25 31 1022.3 1022.3 0.2
02/02:30am 11.8 0.7 6.5 70 2.5 SSW 54 61 29 33 1022.2 1022.2 0.2
02/02:07am 11.8 1.6 7.1 73 2.3 SSW 50 69 27 37 1022.2 1022.2 0.2
02/02:00am 11.4 -0.2 6.7 73 2.2 SSW 57 69 31 37 1022.1 1022.1 0.2
02/01:30am 11.8 0.8 6.7 71 2.4 SSW 54 65 29 35 1021.8 1021.8 0.2
02/01:15am 11.9 1.7 7.0 72 2.3 SSW 50 69 27 37 1021.5 1021.5 0.2
02/01:00am 11.7 0.3 6.8 72 2.3 SSW 56 65 30 35 1021.5 1021.5 0.2
02/12:39am 11.6 0.6 6.9 73 2.2 SSW 54 72 29 39 1021.4 1021.4 0.2
02/12:30am 11.8 0.9 7.1 73 2.2 SSW 54 65 29 35 1021.5 1021.5 0.2
02/12:11am 11.8 1.1 6.5 70 2.5 SSW 52 80 28 43 1021.3 1021.3 0.2
02/12:00am 11.8 1.3 7.3 74 2.2 SSW 52 65 28 35 1021.6 1021.6 0.2
 
Date/Time
CST
Temp
°C
App
Temp
°C
Dew
Point
Rel
Hum
%
Delta-T
°C
Wind Press
QNH
hPa
Press
MSL
hPa
Rain
since 9 am
mm
Dir
 
Spd
km/h
Gust
km/h
Spd
kts
Gust
kts
01/11:30pm 12.1 1.4 6.6 69 2.6 SSW 52 70 28 38 1021.1 1021.1 0.2
01/11:03pm 11.8 2.1 7.3 74 2.2 SSW 48 67 26 36 1021.2 1021.2 0.2
01/11:00pm 11.5 1.3 6.8 73 2.2 SSW 50 67 27 36 1021.2 1021.2 0.2
01/10:30pm 12.1 1.4 6.4 68 2.7 SW 52 63 28 34 1021.1 1021.1 0.2
01/10:18pm 11.4 0.2 5.7 68 2.6 SW 54 72 29 39 1021.2 1021.2 0.2
01/10:00pm 12.3 2.0 6.6 68 2.7 SW 50 57 27 31 1020.8 1020.8 0.2
01/09:30pm 11.9 2.0 6.6 70 2.5 SSW 48 59 26 32 1020.7 1020.7 0.2
01/09:00pm 11.2 -0.3 6.3 72 2.3 SW 56 74 30 40 1020.0 1020.0 0.2
01/08:57pm 12.2 1.2 6.9 70 2.5 SW 54 74 29 40 1019.8 1019.8 0.2
01/08:30pm 12.2 1.2 4.9 61 3.3 SW 52 65 28 35 1019.5 1019.5 0.2
01/08:00pm 12.2 1.2 6.7 69 2.6 SW 54 65 29 35 1019.1 1019.1 0.2
01/07:30pm 12.1 0.3 5.7 65 3.0 SW 57 70 31 38 1018.7 1018.7 0.2
01/07:00pm 11.8 -0.4 5.4 65 3.0 SW 59 69 32 37 1018.3 1018.2 0.2
01/06:30pm 11.9 -0.2 4.2 59 3.5 SSW 57 70 31 38 1017.5 1017.4 0.2
01/06:00pm 12.2 0.3 4.4 59 3.5 SSW 56 70 30 38 1017.1 1017.0 0.2
01/05:34pm 12.4 2.8 6.2 66 2.9 SW 46 65 25 35 1016.6 1016.5 0.0
01/05:30pm 12.2 3.3 6.7 69 2.6 SW 43 56 23 30 1016.5 1016.4 0.0
01/05:24pm 11.2 2.4 5.5 68 2.6 SW 41 46 22 25 1016.7 1016.6 0.0
01/05:23pm 11.3 -0.8 6.0 70 2.5 SW 59 78 32 42 1016.6 1016.5 0.0
01/05:12pm 11.8 0.2 6.5 70 2.5 SW 57 65 31 35 1016.2 1016.1 0.0
01/05:00pm 11.9 3.8 6.8 71 2.4 SW 39 48 21 26 1016.5 1016.4 0.0
01/04:30pm 12.3 1.8 5.7 64 3.1 SW 50 59 27 32 1016.0 1015.9 0.0
01/04:16pm 11.8 -0.4 5.4 65 3.0 SSW 59 78 32 42 1015.7 1015.6 0.0
01/04:00pm 11.7 0.1 6.6 71 2.4 SSW 57 74 31 40 1015.5 1015.4 0.0
01/03:43pm 11.6 -2.5 5.5 66 2.8 SW 69 76 37 41 1015.0 1015.0 0.0
01/03:42pm 12.1 2.4 5.7 65 3.0 SW 46 74 25 40 1015.1 1015.1 0.0
01/03:30pm 13.6 4.6 6.5 62 3.4 SW 43 54 23 29 1015.0 1015.0 0.0
01/03:00pm 13.5 4.4 6.6 63 3.3 SW 44 50 24 27 1014.8 1014.8 0.0
01/02:30pm 13.8 4.8 7.3 65 3.2 SW 44 52 24 28 1014.5 1014.5 0.0
01/02:00pm 13.6 4.9 8.4 71 2.6 SW 44 56 24 30 1014.4 1014.4 0.0
01/01:31pm 13.4 4.6 8.0 70 2.7 WSW 44 67 24 36 1014.1 1014.1 0.0
01/01:30pm 13.6 4.6 7.4 66 3.0 WSW 44 56 24 30 1014.3 1014.3 0.0
01/01:00pm 13.4 6.2 7.6 68 2.8 WSW 35 43 19 23 1014.6 1014.6 0.0
01/12:30pm 13.6 6.8 7.6 67 2.9 WSW 33 39 18 21 1014.7 1014.7 0.0
01/12:00pm 12.6 3.4 7.9 73 2.3 WSW 46 57 25 31 1014.7 1014.7 0.0
01/11:34am 13.7 2.4 8.1 69 2.8 WSW 57 61 31 33 1014.4 1014.4 0.0
01/11:32am 14.5 7.2 7.3 62 3.5 WSW 35 63 19 34 1014.5 1014.5 0.0
01/11:30am 14.9 7.9 7.0 59 3.9 WSW 33 39 18 21 1014.6 1014.6 0.0
01/11:00am 14.5 7.0 6.1 57 4.0 WSW 35 39 19 21 1014.5 1014.5 0.0
01/10:30am 13.8 7.2 7.6 66 3.1 SW 32 37 17 20 1014.5 1014.5 0.0
01/10:00am 13.3 6.8 6.4 63 3.3 WSW 30 35 16 19 1014.5 1014.5 0.0
01/09:30am 13.7 7.2 6.3 61 3.5 WSW 30 35 16 19 1014.4 1014.4 0.0
01/09:00am 13.6 6.2 6.9 64 3.2 SW 35 43 19 23 1014.2 1014.2 2.6
01/08:30am 13.2 5.4 6.5 64 3.2 WSW 37 44 20 24 1014.0 1014.0 2.6
01/08:00am 13.0 6.0 7.0 67 2.9 SW 33 39 18 21 1013.8 1013.8 2.6
01/07:30am 12.7 5.6 6.5 66 3.0 SW 33 39 18 21 1013.2 1013.2 2.6
01/07:00am 12.6 5.7 7.1 69 2.7 SW 33 43 18 23 1012.9 1012.9 2.6
01/06:30am 12.8 5.2 7.5 70 2.6 SW 37 43 20 23 1012.7 1012.7 2.6
01/06:00am 12.7 6.0 8.0 73 2.3 SW 33 41 18 22 1012.3 1012.3 2.6
01/05:30am 12.5 7.0 9.0 79 1.8 SW 28 33 15 18 1012.1 1012.1 2.6
01/05:03am 11.9 5.9 8.7 81 1.6 SW 30 48 16 26 1012.1 1012.1 2.6
01/05:00am 11.8 4.8 8.5 80 1.6 SW 35 48 19 26 1012.0 1012.0 2.6
01/04:30am 12.8 5.8 8.5 75 2.1 SW 35 41 19 22 1011.6 1011.6 2.6
01/04:00am 13.1 6.5 8.4 73 2.3 SW 33 39 18 21 1011.3 1011.3 2.6
01/03:30am 13.1 7.6 9.0 76 2.1 SW 28 35 15 19 1011.2 1011.2 2.6
01/03:00am 12.8 7.3 9.1 78 1.9 SSW 28 35 15 19 1011.1 1011.1 2.6
01/02:30am 12.7 5.7 9.9 83 1.4 SSW 37 46 20 25 1011.2 1011.2 2.6
01/02:00am 13.3 6.0 10.1 81 1.7 SW 39 46 21 25 1011.0 1011.0 2.6
01/01:30am 13.3 5.3 10.5 83 1.5 SW 43 50 23 27 1011.3 1011.3 2.6
01/01:00am 12.9 6.1 10.8 87 1.1 SW 37 46 20 25 1011.5 1011.5 2.6
01/12:30am 13.3 7.6 11.0 86 1.2 SW 32 48 17 26 1011.1 1011.1 2.4
01/12:28am 13.2 8.1 10.7 85 1.3 SW 28 46 15 25 1011.1 1011.1 2.4
01/12:00am 13.7 8.3 10.9 83 1.5 WSW 30 35 16 19 1011.4 1011.4 1.2
 
Date/Time
CST
Temp
°C
App
Temp
°C
Dew
Point
Rel
Hum
%
Delta-T
°C
Wind Press
QNH
hPa
Press
MSL
hPa
Rain
since 9 am
mm
Dir
 
Spd
km/h
Gust
km/h
Spd
kts
Gust
kts
31/11:30pm 14.1 7.8 10.9 81 1.7 WSW 35 39 19 21 1011.5 1011.5 1.0
31/11:00pm 14.2 8.2 10.8 80 1.8 WSW 33 41 18 22 1011.2 1011.2 1.0
31/10:30pm 14.2 7.8 10.8 80 1.8 SW 35 41 19 22 1011.2 1011.2 1.0
31/10:00pm 14.2 7.9 11.0 81 1.7 SW 35 41 19 22 1011.0 1011.0 1.0
31/09:30pm 14.2 7.9 11.2 82 1.6 SW 35 43 19 23 1011.1 1011.1 1.0
31/09:00pm 14.3 8.6 11.3 82 1.6 WSW 32 37 17 20 1010.9 1010.9 1.0
31/08:30pm 14.1 9.4 10.7 80 1.8 WSW 26 30 14 16 1010.8 1010.8 1.0
31/08:00pm 14.1 9.1 10.9 81 1.7 WSW 28 33 15 18 1011.0 1011.0 1.0
31/07:30pm 13.9 8.6 11.1 83 1.5 WSW 30 41 16 22 1011.1 1011.1 1.0
31/07:00pm 14.0 10.0 11.7 86 1.2 WSW 24 30 13 16 1011.2 1011.2 0.8
31/06:30pm 13.8 8.3 11.7 87 1.1 WSW 32 37 17 20 1010.8 1010.8 0.8
31/06:00pm 14.3 8.8 11.8 85 1.3 WSW 32 35 17 19 1010.5 1010.5 0.2
31/05:30pm 14.4 8.8 11.6 83 1.5 WSW 32 35 17 19 1010.0 1010.0 0.0
31/05:00pm 14.6 8.1 11.6 82 1.6 WSW 37 44 20 24 1009.8 1009.8 0.0
31/04:30pm 15.0 8.2 12.1 83 1.6 WSW 39 46 21 25 1009.3 1009.3 0.0
31/04:00pm 15.5 8.7 12.1 80 1.9 WSW 39 44 21 24 1009.1 1009.1 0.0
31/03:30pm 16.2 10.2 12.2 77 2.2 W 35 43 19 23 1008.8 1008.8 0.0
31/03:00pm 16.6 10.9 11.3 71 2.9 W 32 37 17 20 1008.8 1008.8 0.0
31/02:30pm 16.7 10.1 9.9 64 3.6 WNW 35 43 19 23 1009.3 1009.3 0.0
31/02:00pm 16.4 10.9 9.3 63 3.7 WNW 28 33 15 18 1009.3 1009.3 0.0

Other Formats:

Comma delimited format used in spreadsheet applications
http://www.bom.gov.au/fwo/IDS60801/IDS60801.94804.axf

JavaScript Object Notation format (JSON) in row-major order
http://www.bom.gov.au/fwo/IDS60801/IDS60801.94804.json